Time;durP1;ratioP1;P1;durP2;ratioP2;P2;SDS_P1;SDS_P2;PMS_P1;PMS_P2;Temp;Humidity;BMP_temperature;BMP_pressure;BME280_temperature;BME280_humidity;BME280_pressure;Samples;Min_cycle;Max_cycle;Signal;HPM_P1;HPM_P2
2021/11/23 00:00:35;;;;;;;;;57.75;49.50;9.30;80.10;;;;;;5054227;28;8766;-66
2021/11/23 00:03:00;;;;;;;;;61.25;51.25;9.20;80.20;;;;;;5054208;28;8909;-65
2021/11/23 00:05:27;;;;;;;;;55.25;48.00;9.30;80.00;;;;;;5054147;28;8787;-65
2021/11/23 00:07:53;;;;;;;;;60.75;51.75;9.40;79.50;;;;;;5054135;28;8795;-65
2021/11/23 00:10:19;;;;;;;;;57.00;49.00;9.30;80.00;;;;;;5054086;28;8787;-65
2021/11/23 00:12:44;;;;;;;;;56.25;48.00;9.10;80.90;;;;;;5054101;28;8783;-65
2021/11/23 00:15:11;;;;;;;;;51.75;45.25;9.20;80.80;;;;;;5053971;28;8811;-64
2021/11/23 00:17:36;;;;;;;;;54.25;46.75;9.10;81.10;;;;;;5054292;28;8763;-65
2021/11/23 00:20:04;;;;;;;;;54.25;46.25;9.00;82.00;;;;;;5054310;28;8818;-67
2021/11/23 00:22:31;;;;;;;;;57.00;48.00;9.20;81.20;;;;;;5054244;28;8763;-64
2021/11/23 00:24:58;;;;;;;;;54.25;45.25;9.30;79.90;;;;;;5054058;28;8767;-65
2021/11/23 00:27:24;;;;;;;;;49.50;43.50;9.30;80.00;;;;;;5054252;28;9627;-65
2021/11/23 00:29:51;;;;;;;;;61.50;51.50;9.40;79.60;;;;;;5054219;28;9464;-65
2021/11/23 00:32:17;;;;;;;;;56.00;47.75;9.40;79.40;;;;;;5053932;28;8763;-64
2021/11/23 00:34:43;;;;;;;;;51.75;45.00;9.40;79.80;;;;;;5053826;28;8853;-66
2021/11/23 00:37:08;;;;;;;;;54.50;46.25;9.40;79.60;;;;;;5053891;28;8775;-65
2021/11/23 00:39:35;;;;;;;;;52.75;45.50;9.20;80.30;;;;;;5052829;28;8809;-66
2021/11/23 00:42:00;;;;;;;;;56.50;46.75;9.20;81.30;;;;;;5054085;28;8771;-65
2021/11/23 00:44:26;;;;;;;;;49.25;43.25;9.30;79.70;;;;;;5053697;28;9475;-65
2021/11/23 00:46:52;;;;;;;;;49.25;42.00;9.30;79.60;;;;;;5053764;28;8763;-65
2021/11/23 00:49:18;;;;;;;;;51.50;44.50;9.00;81.00;;;;;;5053485;28;8830;-65
2021/11/23 00:51:44;;;;;;;;;57.50;49.25;9.10;81.00;;;;;;5053986;28;8775;-65
2021/11/23 00:54:10;;;;;;;;;56.50;44.75;9.00;81.80;;;;;;5053538;28;8826;-66
2021/11/23 00:56:35;;;;;;;;;47.50;42.25;9.10;81.40;;;;;;5053358;28;8932;-65
2021/11/23 00:59:02;;;;;;;;;51.50;43.50;9.20;80.70;;;;;;5052766;28;8775;-65
2021/11/23 01:01:28;;;;;;;;;48.50;41.25;9.10;80.70;;;;;;5053837;28;8801;-65
2021/11/23 01:03:54;;;;;;;;;45.50;40.50;9.20;80.60;;;;;;5053622;28;8762;-64
2021/11/23 01:06:20;;;;;;;;;50.00;41.75;9.20;80.70;;;;;;5053859;28;8763;-65
2021/11/23 01:08:47;;;;;;;;;52.50;45.50;9.30;80.10;;;;;;5053615;28;8779;-66
2021/11/23 01:11:15;;;;;;;;;40.00;38.25;9.20;80.00;;;;;;5056779;28;8817;-65
2021/11/23 01:13:41;;;;;;;;;50.75;43.50;9.20;80.80;;;;;;5057031;28;8964;-64
2021/11/23 01:16:08;;;;;;;;;44.00;40.50;9.40;79.50;;;;;;5057034;28;8790;-65
2021/11/23 01:18:34;;;;;;;;;44.25;39.50;9.30;80.40;;;;;;5057361;28;8866;-66
2021/11/23 01:21:01;;;;;;;;;42.50;39.25;9.20;80.50;;;;;;5057409;28;8795;-66
2021/11/23 01:23:28;;;;;;;;;50.75;43.75;9.40;79.40;;;;;;5057163;28;8778;-66
2021/11/23 01:25:54;;;;;;;;;47.50;42.50;9.30;79.50;;;;;;5056828;28;8774;-66
2021/11/23 01:28:20;;;;;;;;;44.25;40.25;9.20;80.00;;;;;;5057079;28;8894;-65
2021/11/23 01:30:46;;;;;;;;;51.00;45.00;9.30;80.20;;;;;;5057067;28;8774;-64
2021/11/23 01:33:12;;;;;;;;;44.25;38.75;9.40;79.90;;;;;;5056797;28;8770;-65
2021/11/23 01:35:38;;;;;;;;;46.75;38.50;9.40;79.60;;;;;;5056634;28;8803;-65
2021/11/23 01:38:04;;;;;;;;;42.75;39.75;9.40;79.70;;;;;;5056681;28;8896;-67
2021/11/23 01:40:30;;;;;;;;;39.50;35.25;9.60;78.90;;;;;;5056834;28;8774;-65
2021/11/23 01:42:56;;;;;;;;;40.25;37.75;9.50;78.80;;;;;;5056789;28;9453;-65
2021/11/23 01:45:22;;;;;;;;;42.00;39.50;9.30;79.60;;;;;;5056493;28;8916;-66
2021/11/23 01:47:48;;;;;;;;;50.00;44.00;9.20;81.00;;;;;;5056467;28;8864;-65
2021/11/23 01:50:15;;;;;;;;;40.75;39.00;9.20;81.00;;;;;;5056670;28;9472;-65
2021/11/23 01:52:44;;;;;;;;;39.25;37.50;9.30;81.20;;;;;;5056664;28;8843;-66
2021/11/23 01:55:11;;;;;;;;;46.00;40.50;9.50;80.00;;;;;;5056209;28;8806;-65
2021/11/23 01:57:37;;;;;;;;;38.50;36.75;9.80;78.70;;;;;;5056292;28;8836;-65
2021/11/23 02:00:07;;;;;;;;;43.00;40.50;9.70;78.40;;;;;;5056232;28;9436;-64
2021/11/23 02:02:33;;;;;;;;;33.50;29.75;9.50;79.60;;;;;;5056435;28;8975;-65
2021/11/23 02:04:59;;;;;;;;;46.75;42.00;9.50;80.10;;;;;;5056150;28;8799;-65
2021/11/23 02:07:24;;;;;;;;;47.00;40.25;9.70;78.90;;;;;;5056196;28;8848;-67
2021/11/23 02:09:50;;;;;;;;;42.50;39.50;10.10;77.20;;;;;;5056079;28;9372;-66
2021/11/23 02:12:17;;;;;;;;;35.50;35.00;10.10;77.20;;;;;;5055909;28;8767;-65
2021/11/23 02:14:43;;;;;;;;;48.25;41.75;10.30;76.60;;;;;;5055836;28;8930;-66
2021/11/23 02:17:09;;;;;;;;;35.75;34.75;10.40;75.70;;;;;;5056142;28;8801;-65
2021/11/23 02:19:35;;;;;;;;;46.00;41.25;10.60;75.20;;;;;;5054742;28;8807;-65
2021/11/23 02:22:02;;;;;;;;;45.75;41.50;10.40;75.60;;;;;;5054481;28;8770;-65
2021/11/23 02:24:27;;;;;;;;;49.00;43.50;10.60;75.20;;;;;;5055773;28;8787;-64
2021/11/23 02:26:53;;;;;;;;;45.50;40.75;10.50;75.40;;;;;;5055970;28;8763;-65
2021/11/23 02:29:19;;;;;;;;;50.25;43.75;10.50;75.00;;;;;;5055633;28;8823;-64
2021/11/23 02:31:45;;;;;;;;;52.00;43.50;10.60;75.10;;;;;;5055666;28;8763;-65
2021/11/23 02:34:11;;;;;;;;;47.25;41.50;10.70;74.80;;;;;;5055776;28;8814;-64
2021/11/23 02:36:38;;;;;;;;;56.50;46.50;10.70;74.70;;;;;;5055841;28;8964;-65
2021/11/23 02:39:05;;;;;;;;;55.50;46.50;10.80;74.10;;;;;;5055570;28;8777;-65
2021/11/23 02:41:32;;;;;;;;;52.75;45.75;10.70;74.80;;;;;;5055492;28;8789;-66
2021/11/23 02:43:58;;;;;;;;;50.25;44.00;10.60;74.80;;;;;;5055644;28;8801;-65
2021/11/23 02:46:24;;;;;;;;;51.75;45.00;10.60;75.20;;;;;;5055565;28;8844;-66
2021/11/23 02:48:50;;;;;;;;;45.00;41.00;10.90;74.50;;;;;;5055263;28;8825;-65
2021/11/23 02:51:17;;;;;;;;;54.50;47.00;10.90;74.10;;;;;;5055637;28;8810;-65
2021/11/23 02:53:49;;;;;;;;;52.25;45.50;11.00;73.80;;;;;;5055404;28;8921;-64
2021/11/23 02:56:16;;;;;;;;;54.75;47.00;11.10;73.40;;;;;;5055195;28;8774;-64
2021/11/23 02:58:49;;;;;;;;;55.00;46.50;11.10;72.90;;;;;;5055336;28;8751;-65
2021/11/23 03:01:24;;;;;;;;;43.25;39.00;11.00;73.50;;;;;;5055100;28;8786;-65
2021/11/23 03:03:51;;;;;;;;;61.00;50.75;11.20;73.10;;;;;;5055059;28;8779;-65
2021/11/23 03:06:18;;;;;;;;;57.50;48.50;11.40;72.10;;;;;;5055256;28;8786;-65
2021/11/23 03:08:45;;;;;;;;;64.00;52.00;11.40;72.10;;;;;;5054984;28;8771;-66
2021/11/23 03:11:12;;;;;;;;;59.25;51.00;11.50;71.80;;;;;;5054930;28;8836;-67
2021/11/23 03:13:38;;;;;;;;;57.25;49.00;11.40;72.00;;;;;;5055049;28;9433;-64
2021/11/23 03:16:04;;;;;;;;;62.75;52.75;11.30;72.60;;;;;;5054842;28;8785;-65
2021/11/23 03:18:30;;;;;;;;;60.25;51.00;11.20;72.70;;;;;;5055057;28;8759;-66
2021/11/23 03:20:56;;;;;;;;;61.50;51.75;11.30;72.90;;;;;;5055060;28;8855;-65
2021/11/23 03:23:22;;;;;;;;;59.00;50.00;11.40;72.30;;;;;;5054728;28;8759;-65
2021/11/23 03:25:48;;;;;;;;;53.75;46.00;11.30;72.30;;;;;;5054906;28;8767;-65
2021/11/23 03:28:14;;;;;;;;;61.00;52.25;11.40;72.10;;;;;;5054709;28;8811;-64
2021/11/23 03:30:41;;;;;;;;;60.25;51.00;11.40;72.00;;;;;;5054554;28;8849;-65
2021/11/23 03:33:07;;;;;;;;;63.75;52.00;11.50;71.80;;;;;;5054170;28;8777;-64
2021/11/23 03:35:36;;;;;;;;;58.50;50.00;11.50;71.20;;;;;;5054693;28;9503;-65
2021/11/23 03:38:05;;;;;;;;;69.25;57.25;11.70;70.70;;;;;;5054583;28;8767;-65
2021/11/23 03:40:32;;;;;;;;;64.50;54.00;11.80;70.40;;;;;;5054408;28;8778;-66
2021/11/23 03:42:59;;;;;;;;;66.75;56.00;11.70;70.60;;;;;;5053470;28;8885;-65
2021/11/23 03:45:25;;;;;;;;;61.25;50.00;11.40;71.40;;;;;;5054672;28;9522;-65
2021/11/23 03:47:52;;;;;;;;;70.75;54.75;11.50;71.30;;;;;;5054143;28;8819;-65
2021/11/23 03:50:18;;;;;;;;;65.25;53.75;11.40;71.80;;;;;;5054241;28;8807;-65
2021/11/23 03:52:46;;;;;;;;;66.25;54.50;11.50;71.30;;;;;;5054452;28;8777;-65
2021/11/23 03:55:17;;;;;;;;;60.50;52.50;11.30;72.70;;;;;;5054419;28;8836;-64
2021/11/23 03:57:47;;;;;;;;;62.50;52.00;11.30;72.00;;;;;;5054513;28;9457;-65
2021/11/23 04:00:15;;;;;;;;;59.75;49.00;11.40;72.00;;;;;;5054242;28;8767;-64
2021/11/23 04:02:41;;;;;;;;;61.75;52.00;11.20;72.20;;;;;;5054220;28;8771;-66
2021/11/23 04:05:08;;;;;;;;;58.25;49.75;11.20;72.50;;;;;;5054202;28;8766;-65
2021/11/23 04:07:36;;;;;;;;;69.00;56.00;10.90;73.30;;;;;;5054158;28;8878;-65
2021/11/23 04:10:04;;;;;;;;;60.50;50.00;10.40;75.40;;;;;;5054006;28;8893;-65
2021/11/23 04:12:29;;;;;;;;;60.25;51.25;10.10;77.40;;;;;;5054403;28;8782;-65
2021/11/23 04:14:55;;;;;;;;;61.00;50.25;10.10;77.50;;;;;;5053939;28;8884;-65
2021/11/23 04:17:21;;;;;;;;;60.50;51.00;9.90;78.90;;;;;;5054039;28;8771;-64
2021/11/23 04:19:47;;;;;;;;;64.00;53.50;10.00;78.70;;;;;;5054249;28;8917;-69
2021/11/23 04:22:13;;;;;;;;;60.00;50.50;10.10;77.70;;;;;;5054551;28;8801;-65
2021/11/23 04:24:38;;;;;;;;;57.00;49.00;10.30;77.00;;;;;;5054274;28;9515;-65
2021/11/23 04:27:04;;;;;;;;;65.25;54.00;10.50;75.70;;;;;;5054160;28;8775;-65
2021/11/23 04:29:30;;;;;;;;;65.50;52.75;10.30;76.30;;;;;;5054157;28;9441;-65
2021/11/23 04:31:56;;;;;;;;;56.00;48.00;10.20;77.10;;;;;;5053915;28;8775;-64
2021/11/23 04:34:22;;;;;;;;;65.50;54.00;10.10;77.40;;;;;;5053772;28;8818;-65
2021/11/23 04:36:48;;;;;;;;;59.75;49.50;10.20;77.20;;;;;;5053910;28;8771;-65
2021/11/23 04:39:14;;;;;;;;;63.75;53.75;10.30;76.70;;;;;;5053225;28;8863;-65
2021/11/23 04:41:41;;;;;;;;;65.25;54.25;10.20;76.90;;;;;;5054038;28;8889;-65
2021/11/23 04:44:07;;;;;;;;;62.25;52.25;10.10;77.50;;;;;;5055582;28;8902;-66
2021/11/23 04:46:32;;;;;;;;;66.25;53.25;10.20;77.80;;;;;;5057855;28;8763;-65
2021/11/23 04:48:59;;;;;;;;;61.50;51.50;10.10;77.50;;;;;;5057392;28;8810;-65
2021/11/23 04:51:25;;;;;;;;;66.75;55.50;10.00;78.40;;;;;;5057969;28;8817;-64
2021/11/23 04:53:51;;;;;;;;;64.25;53.50;10.00;77.90;;;;;;5057714;28;8818;-65
2021/11/23 04:56:17;;;;;;;;;68.50;55.75;10.00;78.20;;;;;;5057437;28;8787;-65
2021/11/23 04:58:44;;;;;;;;;64.75;54.00;10.20;77.20;;;;;;5057395;28;8759;-67
2021/11/23 05:01:10;;;;;;;;;66.00;55.25;9.90;78.50;;;;;;5057536;28;8795;-64
2021/11/23 05:03:35;;;;;;;;;64.75;51.25;10.00;78.50;;;;;;5057303;28;8767;-65
2021/11/23 05:06:01;;;;;;;;;68.00;54.75;10.20;78.10;;;;;;5057278;28;8833;-65
2021/11/23 05:08:27;;;;;;;;;65.25;54.25;10.40;76.50;;;;;;5057194;28;9443;-64
2021/11/23 05:10:53;;;;;;;;;63.50;52.75;10.20;77.40;;;;;;5057166;28;8932;-66
2021/11/23 05:13:18;;;;;;;;;68.25;56.75;10.20;77.30;;;;;;5057162;28;8782;-65
2021/11/23 05:15:44;;;;;;;;;65.25;54.75;10.00;77.60;;;;;;5056984;28;8803;-65
2021/11/23 05:18:10;;;;;;;;;64.00;53.25;10.20;77.10;;;;;;5057081;28;8771;-66
2021/11/23 05:20:36;;;;;;;;;65.00;53.75;10.00;77.80;;;;;;5057177;28;8921;-65
2021/11/23 05:23:02;;;;;;;;;71.00;58.00;10.10;77.80;;;;;;5056939;28;8775;-67
2021/11/23 05:25:27;;;;;;;;;68.25;56.75;10.20;77.50;;;;;;5057186;28;8783;-65
2021/11/23 05:27:53;;;;;;;;;67.75;55.50;10.40;76.60;;;;;;5057078;28;8815;-65
2021/11/23 05:30:19;;;;;;;;;72.50;58.50;10.40;76.10;;;;;;5056996;28;8786;-67
2021/11/23 05:32:45;;;;;;;;;70.75;56.75;10.30;76.50;;;;;;5056849;28;8779;-67
2021/11/23 05:35:11;;;;;;;;;70.50;56.50;10.50;75.80;;;;;;5056859;28;8815;-65
2021/11/23 05:37:37;;;;;;;;;70.25;58.25;10.20;76.40;;;;;;5056588;28;8771;-67
2021/11/23 05:40:05;;;;;;;;;67.75;55.75;10.30;76.50;;;;;;5054369;28;8910;-67
2021/11/23 05:42:30;;;;;;;;;59.50;49.75;10.60;75.60;;;;;;5055979;28;8930;-65
2021/11/23 05:44:56;;;;;;;;;73.50;59.25;10.60;75.40;;;;;;5056003;28;8791;-66
2021/11/23 05:47:22;;;;;;;;;72.25;57.75;10.40;75.70;;;;;;5056336;28;8811;-66
2021/11/23 05:49:49;;;;;;;;;73.50;59.75;10.20;76.80;;;;;;5051042;28;8830;-64
2021/11/23 05:52:15;;;;;;;;;66.25;54.75;10.10;77.60;;;;;;5056234;28;8853;-65
2021/11/23 05:54:41;;;;;;;;;72.50;59.25;9.90;78.30;;;;;;5055676;28;8798;-66
2021/11/23 05:57:07;;;;;;;;;72.25;58.25;10.00;78.40;;;;;;5055787;28;8791;-65
2021/11/23 05:59:33;;;;;;;;;76.00;61.50;10.10;77.80;;;;;;5054628;28;8791;-62
2021/11/23 06:01:59;;;;;;;;;71.25;57.50;10.30;77.20;;;;;;5054618;28;8905;-63
2021/11/23 06:04:24;;;;;;;;;70.50;58.00;10.20;77.20;;;;;;5055934;28;8783;-62
2021/11/23 06:06:50;;;;;;;;;75.75;60.75;10.30;76.50;;;;;;5055125;28;9602;-62
2021/11/23 06:09:16;;;;;;;;;74.00;61.00;10.40;76.60;;;;;;5055596;28;9531;-62
2021/11/23 06:11:42;;;;;;;;;74.50;58.50;10.60;76.20;;;;;;5055959;28;8778;-62
2021/11/23 06:14:08;;;;;;;;;73.50;56.25;10.70;75.20;;;;;;5056099;28;8825;-62
2021/11/23 06:16:36;;;;;;;;;74.25;59.75;10.80;74.90;;;;;;5055772;28;8759;-62
2021/11/23 06:19:02;;;;;;;;;76.75;62.25;10.90;74.80;;;;;;5055801;28;8778;-62
2021/11/23 06:21:28;;;;;;;;;71.00;57.75;10.90;73.90;;;;;;5055884;28;8893;-62
2021/11/23 06:23:54;;;;;;;;;75.00;62.00;10.70;74.90;;;;;;5055777;28;8882;-62
2021/11/23 06:26:21;;;;;;;;;79.25;61.25;11.00;73.90;;;;;;5055709;28;8793;-62
2021/11/23 06:28:48;;;;;;;;;75.25;61.00;10.80;74.60;;;;;;5055842;28;8783;-62
2021/11/23 06:31:14;;;;;;;;;74.50;60.00;11.00;73.80;;;;;;5055899;28;8782;-62
2021/11/23 06:33:40;;;;;;;;;78.00;64.75;11.20;73.10;;;;;;5055759;28;8770;-62
2021/11/23 06:36:06;;;;;;;;;85.00;75.25;11.30;72.30;;;;;;5055740;28;8818;-62
2021/11/23 06:38:33;;;;;;;;;80.50;69.00;11.30;72.60;;;;;;5055462;28;8767;-62
2021/11/23 06:40:59;;;;;;;;;83.00;75.00;11.40;72.10;;;;;;5055683;28;8798;-62
2021/11/23 06:43:25;;;;;;;;;83.25;74.00;11.30;72.40;;;;;;5055447;28;8775;-62
2021/11/23 06:45:51;;;;;;;;;81.00;70.50;11.40;72.20;;;;;;5055519;28;8795;-62
2021/11/23 06:48:17;;;;;;;;;79.50;65.25;11.40;71.50;;;;;;5055195;28;8828;-62
2021/11/23 06:50:43;;;;;;;;;80.50;64.75;11.50;71.20;;;;;;5055566;28;8825;-61
2021/11/23 06:53:10;;;;;;;;;77.25;65.00;11.50;71.50;;;;;;5055402;28;8789;-62
2021/11/23 06:55:37;;;;;;;;;75.50;61.00;11.60;71.40;;;;;;5055158;28;8814;-61
2021/11/23 06:58:03;;;;;;;;;82.50;69.50;11.90;70.40;;;;;;5055398;28;8791;-62
2021/11/23 07:00:29;;;;;;;;;84.00;71.75;12.00;69.90;;;;;;5055168;28;8797;-61
2021/11/23 07:02:55;;;;;;;;;78.25;62.50;12.00;69.70;;;;;;5055130;28;8755;-62
2021/11/23 07:05:21;;;;;;;;;81.75;67.00;12.20;69.20;;;;;;5055042;28;9417;-62
2021/11/23 07:07:47;;;;;;;;;81.50;69.00;12.30;69.20;;;;;;5054013;28;8848;-62
2021/11/23 07:10:14;;;;;;;;;82.75;71.25;12.20;69.20;;;;;;5054833;28;8836;-63
2021/11/23 07:12:41;;;;;;;;;81.50;69.50;12.30;68.70;;;;;;5054828;28;8774;-62
2021/11/23 07:15:08;;;;;;;;;79.75;66.25;11.90;69.10;;;;;;5054542;28;8811;-61
2021/11/23 07:17:34;;;;;;;;;79.00;67.25;11.70;70.30;;;;;;5055007;28;9448;-62
2021/11/23 07:20:00;;;;;;;;;73.75;59.25;12.00;69.80;;;;;;5054952;28;8913;-61
2021/11/23 07:22:26;;;;;;;;;79.75;66.50;11.90;70.20;;;;;;5054915;28;8813;-62
2021/11/23 07:24:52;;;;;;;;;76.50;62.50;12.10;69.50;;;;;;5054681;28;8767;-62
2021/11/23 07:27:18;;;;;;;;;78.50;67.00;12.10;68.70;;;;;;5054841;28;8779;-62
2021/11/23 07:29:44;;;;;;;;;77.25;62.50;11.80;70.00;;;;;;5053618;28;8866;-61
2021/11/23 07:32:11;;;;;;;;;75.75;62.25;12.00;69.50;;;;;;5055014;28;8779;-61
2021/11/23 07:34:38;;;;;;;;;79.00;64.50;12.10;68.80;;;;;;5054363;28;8841;-62
2021/11/23 07:37:04;;;;;;;;;73.50;60.50;12.00;68.50;;;;;;5053423;28;8893;-62
2021/11/23 07:39:30;;;;;;;;;78.25;62.00;11.50;70.20;;;;;;5054338;28;8897;-62
2021/11/23 07:41:56;;;;;;;;;74.25;60.00;11.10;72.00;;;;;;5054351;28;8857;-62
2021/11/23 07:44:22;;;;;;;;;73.25;59.50;11.30;71.80;;;;;;5054623;28;8856;-62
2021/11/23 07:46:48;;;;;;;;;70.75;57.50;11.50;70.70;;;;;;5054344;28;8787;-62
2021/11/23 07:49:14;;;;;;;;;79.75;66.50;11.70;70.50;;;;;;5052963;28;8810;-64
2021/11/23 07:51:40;;;;;;;;;78.00;64.25;12.10;69.50;;;;;;5054582;28;8793;-66
2021/11/23 07:54:06;;;;;;;;;68.50;56.00;12.10;68.60;;;;;;5053148;28;8810;-66
2021/11/23 07:56:32;;;;;;;;;77.25;64.50;11.80;69.90;;;;;;5054449;28;9425;-65
2021/11/23 07:58:58;;;;;;;;;75.75;61.50;12.10;69.00;;;;;;5054057;28;8778;-68
2021/11/23 08:01:24;;;;;;;;;78.25;62.00;12.20;68.90;;;;;;5054193;28;8783;-71
2021/11/23 08:03:50;;;;;;;;;79.00;65.75;12.50;68.20;;;;;;5054482;28;8938;-69
2021/11/23 08:06:16;;;;;;;;;77.50;66.00;12.70;67.30;;;;;;5054083;28;9418;-69
2021/11/23 08:08:42;;;;;;;;;74.00;59.50;13.00;66.70;;;;;;5054462;28;8763;-69
2021/11/23 08:11:08;;;;;;;;;72.50;56.75;12.90;65.80;;;;;;5054300;28;8788;-70
2021/11/23 08:13:34;;;;;;;;;78.25;67.25;12.70;66.70;;;;;;5053958;28;8755;-62
2021/11/23 08:16:04;;;;;;;;;79.00;67.50;12.40;67.30;;;;;;5054112;28;8793;-68
2021/11/23 08:18:33;;;;;;;;;81.25;72.50;12.30;67.80;;;;;;5054708;28;8799;-68
2021/11/23 08:21:00;;;;;;;;;77.00;65.75;12.10;68.60;;;;;;5058379;28;8823;-67
2021/11/23 08:23:26;;;;;;;;;77.00;63.75;11.60;70.00;;;;;;5057992;28;8786;-68
2021/11/23 08:25:54;;;;;;;;;74.75;59.50;11.90;69.50;;;;;;5058052;28;8767;-65
2021/11/23 08:28:23;;;;;;;;;77.50;61.00;11.90;69.20;;;;;;5057949;28;8795;-65
2021/11/23 08:30:49;;;;;;;;;71.00;57.50;11.90;68.00;;;;;;5057853;28;8787;-69
2021/11/23 08:33:15;;;;;;;;;74.75;59.75;11.60;68.50;;;;;;5058142;28;8763;-69
2021/11/23 08:35:40;;;;;;;;;77.00;65.25;11.70;68.60;;;;;;5057760;28;8937;-65
2021/11/23 08:38:06;;;;;;;;;66.00;54.75;11.40;69.30;;;;;;5057541;28;8774;-66
2021/11/23 08:40:32;;;;;;;;;73.50;57.50;11.40;69.50;;;;;;5057758;28;8782;-65
2021/11/23 08:42:59;;;;;;;;;71.25;58.75;11.30;69.20;;;;;;5057580;28;8797;-64
2021/11/23 08:45:25;;;;;;;;;77.75;65.00;11.50;68.70;;;;;;5057586;28;8779;-65
2021/11/23 08:47:51;;;;;;;;;77.25;65.25;11.50;68.90;;;;;;5057403;28;8809;-65
2021/11/23 08:50:18;;;;;;;;;73.00;60.00;11.70;68.60;;;;;;5057375;28;8803;-63
2021/11/23 08:52:44;;;;;;;;;66.75;54.75;11.90;67.10;;;;;;5056326;28;8875;-64
2021/11/23 08:55:11;;;;;;;;;74.00;60.50;12.20;66.50;;;;;;5056074;28;8791;-62
2021/11/23 08:57:38;;;;;;;;;67.50;55.00;12.10;66.60;;;;;;5056047;28;8751;-65
2021/11/23 09:00:19;;;;;;;;;68.50;56.50;11.70;67.10;;;;;;5051444;28;8863;-65
2021/11/23 09:02:51;;;;;;;;;60.50;50.25;12.10;66.10;;;;;;5037444;28;8793;-66
2021/11/23 09:05:19;;;;;;;;;63.25;52.00;12.20;66.50;;;;;;5051081;28;8836;-65
2021/11/23 09:07:45;;;;;;;;;61.75;50.25;12.20;66.40;;;;;;5057228;28;8874;-64
2021/11/23 09:10:31;;;;;;;;;64.50;53.00;12.20;65.40;;;;;;5056950;28;9531;-65
2021/11/23 09:12:59;;;;;;;;;62.50;52.50;12.10;65.50;;;;;;5056980;28;9431;-65
2021/11/23 09:15:27;;;;;;;;;65.25;53.75;12.10;65.70;;;;;;5056669;28;8841;-67
2021/11/23 09:17:54;;;;;;;;;60.00;51.00;12.20;65.30;;;;;;5056471;28;8785;-65
2021/11/23 09:20:20;;;;;;;;;70.25;55.50;12.00;65.20;;;;;;5057007;28;8795;-66
2021/11/23 09:22:46;;;;;;;;;64.00;53.75;11.70;67.00;;;;;;5056647;28;9557;-64
2021/11/23 09:25:15;;;;;;;;;63.25;52.50;11.60;66.80;;;;;;5056759;28;8797;-66
2021/11/23 09:27:41;;;;;;;;;63.50;53.25;11.70;67.60;;;;;;5054547;28;8759;-64
2021/11/23 09:30:13;;;;;;;;;63.75;52.50;12.30;66.30;;;;;;5035647;28;8796;-65
2021/11/23 09:32:39;;;;;;;;;68.00;55.25;12.20;65.60;;;;;;5036694;28;8782;-65
2021/11/23 09:35:05;;;;;;;;;60.00;50.50;11.80;66.50;;;;;;5050116;28;8796;-66
2021/11/23 09:37:31;;;;;;;;;65.00;53.50;11.80;66.80;;;;;;5056634;28;8764;-64
2021/11/23 09:39:57;;;;;;;;;73.00;59.00;12.20;66.60;;;;;;5056817;28;8891;-64
2021/11/23 09:42:23;;;;;;;;;67.50;56.50;12.80;64.80;;;;;;5057008;28;8822;-64
2021/11/23 09:44:50;;;;;;;;;58.50;48.50;13.00;63.20;;;;;;5055918;28;8789;-65
2021/11/23 09:47:16;;;;;;;;;57.25;47.00;12.10;64.40;;;;;;5056170;28;9430;-66
2021/11/23 09:49:42;;;;;;;;;60.00;49.50;11.70;66.40;;;;;;5056263;28;8808;-64
2021/11/23 09:52:09;;;;;;;;;57.00;48.00;12.00;66.00;;;;;;5056275;28;8777;-64
2021/11/23 09:54:38;;;;;;;;;56.50;47.25;12.30;64.90;;;;;;5055147;28;8808;-64
2021/11/23 09:57:04;;;;;;;;;57.75;48.50;13.00;63.60;;;;;;5055211;28;8769;-66
2021/11/23 09:59:30;;;;;;;;;63.50;52.75;12.30;62.70;;;;;;5054950;28;8869;-68
2021/11/23 10:01:58;;;;;;;;;62.00;51.50;11.90;64.80;;;;;;5054875;28;8780;-66
2021/11/23 10:04:26;;;;;;;;;53.75;45.50;12.30;64.70;;;;;;5055139;28;9391;-69
2021/11/23 10:07:04;;;;;;;;;61.75;51.50;12.90;63.10;;;;;;5054999;28;8773;-67
2021/11/23 10:09:37;;;;;;;;;63.50;52.50;13.30;62.70;;;;;;5054879;28;8874;-65
2021/11/23 10:12:21;;;;;;;;;60.50;50.50;13.50;61.10;;;;;;5054665;28;8774;-68
2021/11/23 10:15:08;;;;;;;;;55.50;47.50;14.20;59.50;;;;;;5053697;28;8799;-68
2021/11/23 10:17:35;;;;;;;;;60.75;50.00;13.80;58.90;;;;;;5055624;28;8764;-67
2021/11/23 10:20:01;;;;;;;;;54.00;46.00;12.90;61.30;;;;;;5055959;28;8803;-68
2021/11/23 10:22:36;;;;;;;;;53.25;45.25;12.90;60.80;;;;;;5054826;28;8769;-67
2021/11/23 10:25:05;;;;;;;;;54.25;46.00;13.00;60.70;;;;;;5052691;28;8866;-70
2021/11/23 10:27:33;;;;;;;;;54.00;45.00;13.10;60.50;;;;;;5055108;28;8758;-69
2021/11/23 10:30:00;;;;;;;;;58.75;48.50;12.60;62.90;;;;;;5055867;28;9393;-67
2021/11/23 10:32:38;;;;;;;;;63.00;52.00;12.40;63.40;;;;;;5055765;28;8766;-67
2021/11/23 10:35:16;;;;;;;;;57.75;49.25;13.00;61.80;;;;;;5054960;28;9469;-64
2021/11/23 10:37:42;;;;;;;;;56.25;47.25;13.20;60.80;;;;;;5055392;28;8793;-65
2021/11/23 10:40:17;;;;;;;;;62.75;52.00;12.00;63.60;;;;;;5055792;28;8775;-64
2021/11/23 10:42:49;;;;;;;;;65.75;54.25;11.90;65.30;;;;;;5055379;28;8884;-70
2021/11/23 10:45:15;;;;;;;;;56.25;48.25;12.50;64.10;;;;;;5055780;28;8775;-64
2021/11/23 10:47:43;;;;;;;;;63.50;51.50;12.20;63.50;;;;;;5055461;28;8999;-65
2021/11/23 10:50:11;;;;;;;;;63.00;53.00;12.50;63.30;;;;;;5053323;28;8819;-65
2021/11/23 10:52:45;;;;;;;;;60.00;50.75;13.10;62.50;;;;;;5051545;28;8833;-64
2021/11/23 10:55:17;;;;;;;;;61.75;51.50;13.70;61.30;;;;;;5053688;28;8984;-66
2021/11/23 10:57:44;;;;;;;;;59.75;50.00;13.60;60.90;;;;;;5054100;28;8777;-66
2021/11/23 11:00:12;;;;;;;;;60.50;49.00;13.60;60.30;;;;;;5053918;28;8883;-68
2021/11/23 11:02:40;;;;;;;;;56.25;47.00;13.40;60.40;;;;;;5053691;28;8972;-68
2021/11/23 11:05:10;;;;;;;;;50.50;43.75;13.60;60.50;;;;;;5054214;28;8769;-64
2021/11/23 11:07:38;;;;;;;;;54.25;47.00;12.80;60.60;;;;;;5055268;28;8805;-65
2021/11/23 11:10:07;;;;;;;;;48.25;42.00;12.40;62.20;;;;;;5055023;28;8870;-64
2021/11/23 11:12:34;;;;;;;;;49.50;43.25;12.60;62.20;;;;;;5055001;28;9468;-64
2021/11/23 11:15:03;;;;;;;;;56.25;47.25;13.20;60.60;;;;;;5054651;28;8858;-64
2021/11/23 11:17:29;;;;;;;;;52.25;43.75;13.80;59.60;;;;;;5054738;28;8797;-64
2021/11/23 11:19:57;;;;;;;;;45.50;38.25;13.30;59.70;;;;;;5054884;28;8797;-66
2021/11/23 11:22:25;;;;;;;;;49.75;42.25;13.20;59.70;;;;;;5054882;28;9426;-63
2021/11/23 11:25:07;;;;;;;;;48.75;41.50;13.70;58.50;;;;;;5054925;28;8791;-63
2021/11/23 11:27:35;;;;;;;;;51.25;44.25;14.00;58.70;;;;;;5053433;28;8825;-67
2021/11/23 11:30:31;;;;;;;;;47.50;41.50;14.50;57.20;;;;;;5053229;28;8787;-64
2021/11/23 11:33:05;;;;;;;;;57.25;48.25;14.00;57.00;;;;;;5052091;28;8771;-63
2021/11/23 11:35:39;;;;;;;;;50.00;42.75;14.10;57.30;;;;;;5051214;28;8803;-67
2021/11/23 11:38:25;;;;;;;;;50.75;43.50;13.80;57.30;;;;;;5054409;28;8759;-68
2021/11/23 11:40:51;;;;;;;;;54.00;45.75;12.90;60.00;;;;;;5054552;28;8763;-62
2021/11/23 11:43:16;;;;;;;;;54.00;46.25;13.00;59.90;;;;;;5054607;28;8844;-62
2021/11/23 11:45:52;;;;;;;;;49.00;42.25;13.20;60.60;;;;;;5054364;28;8763;-62
2021/11/23 11:48:34;;;;;;;;;55.00;46.50;13.60;60.50;;;;;;5054193;28;8872;-63
2021/11/23 11:51:02;;;;;;;;;50.50;43.25;13.90;58.40;;;;;;5054214;28;8884;-62
2021/11/23 11:53:39;;;;;;;;;59.50;49.00;13.90;59.20;;;;;;5052464;28;8778;-62
2021/11/23 11:56:05;;;;;;;;;58.50;48.50;14.10;58.50;;;;;;5054207;28;8929;-62
2021/11/23 11:58:52;;;;;;;;;56.25;47.25;14.20;57.40;;;;;;5054512;28;8801;-62
2021/11/23 12:01:24;;;;;;;;;54.00;45.75;13.90;58.10;;;;;;5054509;28;8771;-62
2021/11/23 12:04:16;;;;;;;;;56.25;47.25;13.90;58.00;;;;;;5054434;28;8903;-63
2021/11/23 12:06:56;;;;;;;;;58.00;49.25;13.80;58.60;;;;;;5054501;28;8802;-63
2021/11/23 12:09:31;;;;;;;;;57.25;47.50;13.30;59.70;;;;;;5054198;28;8797;-63
2021/11/23 12:12:08;;;;;;;;;56.25;47.75;13.10;60.10;;;;;;5054202;28;9490;-61
2021/11/23 12:14:51;;;;;;;;;60.25;50.75;13.00;60.70;;;;;;5054251;28;9792;-63
2021/11/23 12:17:43;;;;;;;;;57.00;48.25;13.40;60.00;;;;;;5054285;28;8778;-63
2021/11/23 12:20:50;;;;;;;;;60.00;50.25;13.60;59.80;;;;;;5054306;28;8775;-63
2021/11/23 12:23:20;;;;;;;;;60.25;50.25;13.60;59.50;;;;;;5054008;28;8840;-63
2021/11/23 12:26:02;;;;;;;;;57.75;49.50;14.10;58.10;;;;;;5054290;28;8771;-63
2021/11/23 12:28:31;;;;;;;;;53.00;45.00;14.50;55.90;;;;;;5053984;28;8767;-61
2021/11/23 12:31:04;;;;;;;;;51.25;43.75;14.50;54.70;;;;;;5053888;28;9381;-61
2021/11/23 12:33:30;;;;;;;;;47.75;41.25;14.00;56.30;;;;;;5054016;28;8798;-63
2021/11/23 12:35:57;;;;;;;;;38.25;35.50;13.40;57.50;;;;;;5054021;28;8856;-63
2021/11/23 12:38:33;;;;;;;;;47.75;41.50;12.40;60.10;;;;;;5054137;28;8779;-63
2021/11/23 12:41:20;;;;;;;;;62.00;51.75;12.80;61.30;;;;;;5054382;28;8806;-63